sensor_id;sensor_type;location;lat;lon;timestamp;P1;durP1;ratioP1;P2;durP2;ratioP2
47279;SDS011;34064;44.942;0.008;2022-07-04T00:01:04;8.52;;;2.22;;
47279;SDS011;34064;44.942;0.008;2022-07-04T00:03:30;4.82;;;2.17;;
47279;SDS011;34064;44.942;0.008;2022-07-04T00:05:56;5.45;;;1.80;;
47279;SDS011;34064;44.942;0.008;2022-07-04T00:08:23;6.28;;;2.30;;
47279;SDS011;34064;44.942;0.008;2022-07-04T00:10:49;5.88;;;2.20;;
47279;SDS011;34064;44.942;0.008;2022-07-04T00:13:16;7.45;;;2.45;;
47279;SDS011;34064;44.942;0.008;2022-07-04T00:15:42;7.25;;;2.92;;
47279;SDS011;34064;44.942;0.008;2022-07-04T00:18:08;6.50;;;2.63;;
47279;SDS011;34064;44.942;0.008;2022-07-04T00:20:35;2.80;;;2.13;;
47279;SDS011;34064;44.942;0.008;2022-07-04T00:23:01;5.93;;;2.33;;
47279;SDS011;34064;44.942;0.008;2022-07-04T00:25:27;3.92;;;2.17;;
47279;SDS011;34064;44.942;0.008;2022-07-04T00:27:54;4.05;;;2.45;;
47279;SDS011;34064;44.942;0.008;2022-07-04T00:30:20;5.22;;;2.42;;
47279;SDS011;34064;44.942;0.008;2022-07-04T00:32:47;3.38;;;1.98;;
47279;SDS011;34064;44.942;0.008;2022-07-04T00:35:13;4.30;;;2.42;;
47279;SDS011;34064;44.942;0.008;2022-07-04T00:37:39;3.95;;;2.40;;
47279;SDS011;34064;44.942;0.008;2022-07-04T00:40:06;7.15;;;2.30;;
47279;SDS011;34064;44.942;0.008;2022-07-04T00:42:33;9.43;;;2.40;;
47279;SDS011;34064;44.942;0.008;2022-07-04T00:44:59;7.25;;;3.38;;
47279;SDS011;34064;44.942;0.008;2022-07-04T00:47:25;7.53;;;2.22;;
47279;SDS011;34064;44.942;0.008;2022-07-04T00:49:52;4.50;;;2.45;;
47279;SDS011;34064;44.942;0.008;2022-07-04T00:52:18;6.30;;;2.53;;
47279;SDS011;34064;44.942;0.008;2022-07-04T00:54:45;5.50;;;2.40;;
47279;SDS011;34064;44.942;0.008;2022-07-04T00:57:12;6.90;;;3.00;;
47279;SDS011;34064;44.942;0.008;2022-07-04T00:59:38;8.27;;;3.30;;
47279;SDS011;34064;44.942;0.008;2022-07-04T01:02:05;5.05;;;2.30;;
47279;SDS011;34064;44.942;0.008;2022-07-04T01:04:33;5.90;;;2.05;;
47279;SDS011;34064;44.942;0.008;2022-07-04T01:07:00;5.57;;;2.67;;
47279;SDS011;34064;44.942;0.008;2022-07-04T01:09:27;4.85;;;2.35;;
47279;SDS011;34064;44.942;0.008;2022-07-04T01:11:53;5.57;;;2.55;;
47279;SDS011;34064;44.942;0.008;2022-07-04T01:14:20;7.80;;;2.65;;
47279;SDS011;34064;44.942;0.008;2022-07-04T01:16:47;8.27;;;2.72;;
47279;SDS011;34064;44.942;0.008;2022-07-04T01:19:13;5.10;;;2.08;;
47279;SDS011;34064;44.942;0.008;2022-07-04T01:21:39;5.85;;;2.53;;
47279;SDS011;34064;44.942;0.008;2022-07-04T01:24:06;5.22;;;2.15;;
47279;SDS011;34064;44.942;0.008;2022-07-04T01:29:03;8.48;;;2.38;;
47279;SDS011;34064;44.942;0.008;2022-07-04T01:31:30;4.35;;;2.33;;
47279;SDS011;34064;44.942;0.008;2022-07-04T01:33:56;5.43;;;3.20;;
47279;SDS011;34064;44.942;0.008;2022-07-04T01:36:22;4.82;;;2.67;;
47279;SDS011;34064;44.942;0.008;2022-07-04T01:38:49;4.65;;;3.10;;
47279;SDS011;34064;44.942;0.008;2022-07-04T01:41:15;8.70;;;3.33;;
47279;SDS011;34064;44.942;0.008;2022-07-04T01:43:42;5.57;;;2.15;;
47279;SDS011;34064;44.942;0.008;2022-07-04T01:46:08;4.80;;;2.13;;
47279;SDS011;34064;44.942;0.008;2022-07-04T01:48:34;9.07;;;2.97;;
47279;SDS011;34064;44.942;0.008;2022-07-04T01:51:01;4.80;;;2.20;;
47279;SDS011;34064;44.942;0.008;2022-07-04T01:53:27;5.32;;;2.40;;
47279;SDS011;34064;44.942;0.008;2022-07-04T01:55:54;4.78;;;2.25;;
47279;SDS011;34064;44.942;0.008;2022-07-04T01:58:20;6.43;;;2.50;;
47279;SDS011;34064;44.942;0.008;2022-07-04T02:00:46;7.53;;;2.80;;
47279;SDS011;34064;44.942;0.008;2022-07-04T02:03:31;6.07;;;2.80;;
47279;SDS011;34064;44.942;0.008;2022-07-04T02:05:57;8.15;;;3.22;;
47279;SDS011;34064;44.942;0.008;2022-07-04T02:08:24;4.68;;;2.58;;
47279;SDS011;34064;44.942;0.008;2022-07-04T02:11:10;5.75;;;2.60;;
47279;SDS011;34064;44.942;0.008;2022-07-04T02:13:36;7.28;;;2.92;;
47279;SDS011;34064;44.942;0.008;2022-07-04T02:16:03;6.07;;;2.67;;
47279;SDS011;34064;44.942;0.008;2022-07-04T02:18:29;5.35;;;2.67;;
47279;SDS011;34064;44.942;0.008;2022-07-04T02:20:56;8.90;;;2.47;;
47279;SDS011;34064;44.942;0.008;2022-07-04T02:23:22;3.78;;;2.15;;
47279;SDS011;34064;44.942;0.008;2022-07-04T02:25:49;4.78;;;2.50;;
47279;SDS011;34064;44.942;0.008;2022-07-04T02:28:15;4.57;;;2.25;;
47279;SDS011;34064;44.942;0.008;2022-07-04T02:30:43;5.13;;;2.35;;
47279;SDS011;34064;44.942;0.008;2022-07-04T02:33:09;3.60;;;2.40;;
47279;SDS011;34064;44.942;0.008;2022-07-04T02:35:36;5.90;;;2.13;;
47279;SDS011;34064;44.942;0.008;2022-07-04T02:38:02;5.30;;;2.65;;
47279;SDS011;34064;44.942;0.008;2022-07-04T02:40:28;7.95;;;2.83;;
47279;SDS011;34064;44.942;0.008;2022-07-04T02:42:55;8.30;;;2.63;;
47279;SDS011;34064;44.942;0.008;2022-07-04T02:45:21;6.40;;;2.95;;
47279;SDS011;34064;44.942;0.008;2022-07-04T02:47:48;4.05;;;2.42;;
47279;SDS011;34064;44.942;0.008;2022-07-04T02:50:16;16.38;;;2.80;;
47279;SDS011;34064;44.942;0.008;2022-07-04T02:52:43;4.90;;;2.60;;
47279;SDS011;34064;44.942;0.008;2022-07-04T02:55:09;6.75;;;3.28;;
47279;SDS011;34064;44.942;0.008;2022-07-04T02:57:35;4.78;;;2.45;;
47279;SDS011;34064;44.942;0.008;2022-07-04T03:00:02;5.72;;;2.42;;
47279;SDS011;34064;44.942;0.008;2022-07-04T03:02:29;5.45;;;2.58;;
47279;SDS011;34064;44.942;0.008;2022-07-04T03:04:55;3.08;;;2.33;;
47279;SDS011;34064;44.942;0.008;2022-07-04T03:07:22;6.47;;;2.85;;
47279;SDS011;34064;44.942;0.008;2022-07-04T03:09:48;6.50;;;2.70;;
47279;SDS011;34064;44.942;0.008;2022-07-04T03:12:14;5.60;;;2.58;;
47279;SDS011;34064;44.942;0.008;2022-07-04T03:14:41;4.47;;;3.40;;
47279;SDS011;34064;44.942;0.008;2022-07-04T03:17:07;4.63;;;2.70;;
47279;SDS011;34064;44.942;0.008;2022-07-04T03:19:33;6.72;;;3.30;;
47279;SDS011;34064;44.942;0.008;2022-07-04T03:22:00;4.40;;;2.47;;
47279;SDS011;34064;44.942;0.008;2022-07-04T03:24:26;2.67;;;2.00;;
47279;SDS011;34064;44.942;0.008;2022-07-04T03:26:53;4.75;;;2.83;;
47279;SDS011;34064;44.942;0.008;2022-07-04T03:29:20;8.13;;;3.53;;
47279;SDS011;34064;44.942;0.008;2022-07-04T03:31:50;13.90;;;3.20;;
47279;SDS011;34064;44.942;0.008;2022-07-04T03:34:17;5.53;;;3.15;;
47279;SDS011;34064;44.942;0.008;2022-07-04T03:36:43;5.20;;;3.30;;
47279;SDS011;34064;44.942;0.008;2022-07-04T03:39:09;7.15;;;2.92;;
47279;SDS011;34064;44.942;0.008;2022-07-04T03:41:36;5.47;;;3.53;;
47279;SDS011;34064;44.942;0.008;2022-07-04T03:44:02;6.35;;;2.80;;
47279;SDS011;34064;44.942;0.008;2022-07-04T03:46:29;6.88;;;3.13;;
47279;SDS011;34064;44.942;0.008;2022-07-04T03:48:55;4.80;;;2.42;;
47279;SDS011;34064;44.942;0.008;2022-07-04T03:51:21;3.72;;;2.30;;
47279;SDS011;34064;44.942;0.008;2022-07-04T03:53:48;7.88;;;2.80;;
47279;SDS011;34064;44.942;0.008;2022-07-04T03:56:14;6.32;;;2.67;;
47279;SDS011;34064;44.942;0.008;2022-07-04T03:58:41;4.30;;;2.80;;
47279;SDS011;34064;44.942;0.008;2022-07-04T04:01:08;6.88;;;3.20;;
47279;SDS011;34064;44.942;0.008;2022-07-04T04:03:35;6.85;;;3.30;;
47279;SDS011;34064;44.942;0.008;2022-07-04T04:06:21;8.52;;;2.90;;
47279;SDS011;34064;44.942;0.008;2022-07-04T04:08:49;3.65;;;2.90;;
47279;SDS011;34064;44.942;0.008;2022-07-04T04:11:17;6.20;;;3.15;;
47279;SDS011;34064;44.942;0.008;2022-07-04T04:13:43;3.20;;;2.58;;
47279;SDS011;34064;44.942;0.008;2022-07-04T04:16:09;11.85;;;2.65;;
47279;SDS011;34064;44.942;0.008;2022-07-04T04:18:36;5.38;;;2.97;;
47279;SDS011;34064;44.942;0.008;2022-07-04T04:21:04;5.03;;;2.25;;
47279;SDS011;34064;44.942;0.008;2022-07-04T04:23:34;6.32;;;3.05;;
47279;SDS011;34064;44.942;0.008;2022-07-04T04:26:04;7.55;;;2.63;;
47279;SDS011;34064;44.942;0.008;2022-07-04T04:28:35;4.28;;;2.95;;
47279;SDS011;34064;44.942;0.008;2022-07-04T04:31:05;5.60;;;2.63;;
47279;SDS011;34064;44.942;0.008;2022-07-04T04:33:36;4.65;;;2.75;;
47279;SDS011;34064;44.942;0.008;2022-07-04T04:36:06;6.50;;;3.08;;
47279;SDS011;34064;44.942;0.008;2022-07-04T04:38:45;5.30;;;2.47;;
47279;SDS011;34064;44.942;0.008;2022-07-04T04:41:19;5.30;;;2.42;;
47279;SDS011;34064;44.942;0.008;2022-07-04T04:43:58;11.40;;;3.20;;
47279;SDS011;34064;44.942;0.008;2022-07-04T04:46:29;3.08;;;2.53;;
47279;SDS011;34064;44.942;0.008;2022-07-04T04:48:58;5.68;;;2.58;;
47279;SDS011;34064;44.942;0.008;2022-07-04T04:51:31;8.18;;;2.38;;
47279;SDS011;34064;44.942;0.008;2022-07-04T04:54:11;5.80;;;2.20;;
47279;SDS011;34064;44.942;0.008;2022-07-04T04:56:40;5.53;;;2.20;;
47279;SDS011;34064;44.942;0.008;2022-07-04T04:59:09;5.22;;;2.58;;
47279;SDS011;34064;44.942;0.008;2022-07-04T05:01:39;6.40;;;3.22;;
47279;SDS011;34064;44.942;0.008;2022-07-04T05:04:07;6.38;;;3.08;;
47279;SDS011;34064;44.942;0.008;2022-07-04T05:06:36;4.60;;;3.50;;
47279;SDS011;34064;44.942;0.008;2022-07-04T05:09:11;4.47;;;4.05;;
47279;SDS011;34064;44.942;0.008;2022-07-04T05:11:41;5.90;;;3.90;;
47279;SDS011;34064;44.942;0.008;2022-07-04T05:14:14;5.13;;;3.88;;
47279;SDS011;34064;44.942;0.008;2022-07-04T05:16:44;7.38;;;4.30;;
47279;SDS011;34064;44.942;0.008;2022-07-04T05:19:13;4.97;;;4.45;;
47279;SDS011;34064;44.942;0.008;2022-07-04T05:21:42;8.27;;;4.90;;
47279;SDS011;34064;44.942;0.008;2022-07-04T05:24:11;5.13;;;4.72;;
47279;SDS011;34064;44.942;0.008;2022-07-04T05:26:42;8.80;;;5.17;;
47279;SDS011;34064;44.942;0.008;2022-07-04T05:29:11;6.15;;;4.78;;
47279;SDS011;34064;44.942;0.008;2022-07-04T05:31:40;11.15;;;5.40;;
47279;SDS011;34064;44.942;0.008;2022-07-04T05:34:09;5.57;;;4.80;;
47279;SDS011;34064;44.942;0.008;2022-07-04T05:36:38;5.97;;;5.35;;
47279;SDS011;34064;44.942;0.008;2022-07-04T05:39:08;8.38;;;5.07;;
47279;SDS011;34064;44.942;0.008;2022-07-04T05:41:36;5.00;;;4.60;;
47279;SDS011;34064;44.942;0.008;2022-07-04T05:47:05;8.27;;;4.97;;
47279;SDS011;34064;44.942;0.008;2022-07-04T05:49:35;7.47;;;4.95;;
47279;SDS011;34064;44.942;0.008;2022-07-04T05:52:04;6.97;;;5.65;;
47279;SDS011;34064;44.942;0.008;2022-07-04T05:54:36;9.80;;;6.07;;
47279;SDS011;34064;44.942;0.008;2022-07-04T05:57:08;9.50;;;5.63;;
47279;SDS011;34064;44.942;0.008;2022-07-04T05:59:34;6.60;;;6.00;;
47279;SDS011;34064;44.942;0.008;2022-07-04T06:02:01;8.70;;;7.40;;
47279;SDS011;34064;44.942;0.008;2022-07-04T06:04:28;7.38;;;5.80;;
47279;SDS011;34064;44.942;0.008;2022-07-04T06:06:55;9.10;;;5.38;;
47279;SDS011;34064;44.942;0.008;2022-07-04T06:09:27;7.32;;;5.00;;
47279;SDS011;34064;44.942;0.008;2022-07-04T06:11:54;10.25;;;5.15;;
47279;SDS011;34064;44.942;0.008;2022-07-04T06:14:21;8.00;;;5.22;;
47279;SDS011;34064;44.942;0.008;2022-07-04T06:16:51;6.55;;;4.70;;
47279;SDS011;34064;44.942;0.008;2022-07-04T06:19:19;7.50;;;4.45;;
47279;SDS011;34064;44.942;0.008;2022-07-04T06:21:46;8.65;;;4.78;;
47279;SDS011;34064;44.942;0.008;2022-07-04T06:24:12;12.63;;;5.15;;
47279;SDS011;34064;44.942;0.008;2022-07-04T06:26:39;9.10;;;5.03;;
47279;SDS011;34064;44.942;0.008;2022-07-04T06:29:05;4.80;;;4.38;;
47279;SDS011;34064;44.942;0.008;2022-07-04T06:31:33;8.07;;;4.97;;
47279;SDS011;34064;44.942;0.008;2022-07-04T06:33:59;8.10;;;4.07;;
47279;SDS011;34064;44.942;0.008;2022-07-04T06:36:44;6.65;;;4.20;;
47279;SDS011;34064;44.942;0.008;2022-07-04T06:39:10;10.55;;;4.53;;
47279;SDS011;34064;44.942;0.008;2022-07-04T06:41:37;7.50;;;4.72;;
47279;SDS011;34064;44.942;0.008;2022-07-04T06:44:04;5.93;;;3.20;;
47279;SDS011;34064;44.942;0.008;2022-07-04T06:46:30;8.65;;;3.60;;
47279;SDS011;34064;44.942;0.008;2022-07-04T06:48:57;6.28;;;3.47;;
47279;SDS011;34064;44.942;0.008;2022-07-04T06:51:23;5.00;;;3.22;;
47279;SDS011;34064;44.942;0.008;2022-07-04T06:53:50;6.82;;;3.28;;
47279;SDS011;34064;44.942;0.008;2022-07-04T06:56:16;2.95;;;2.58;;
47279;SDS011;34064;44.942;0.008;2022-07-04T06:58:43;3.85;;;2.85;;
47279;SDS011;34064;44.942;0.008;2022-07-04T07:01:09;6.88;;;3.60;;
47279;SDS011;34064;44.942;0.008;2022-07-04T07:03:36;3.60;;;2.92;;
47279;SDS011;34064;44.942;0.008;2022-07-04T07:06:03;4.82;;;3.05;;
47279;SDS011;34064;44.942;0.008;2022-07-04T07:08:29;4.57;;;2.90;;
47279;SDS011;34064;44.942;0.008;2022-07-04T07:10:56;5.22;;;2.75;;
47279;SDS011;34064;44.942;0.008;2022-07-04T07:13:38;4.90;;;3.58;;
47279;SDS011;34064;44.942;0.008;2022-07-04T07:16:06;4.65;;;2.38;;
47279;SDS011;34064;44.942;0.008;2022-07-04T07:18:32;4.13;;;2.13;;
47279;SDS011;34064;44.942;0.008;2022-07-04T07:20:58;6.93;;;3.17;;
47279;SDS011;34064;44.942;0.008;2022-07-04T07:23:25;4.38;;;2.20;;
47279;SDS011;34064;44.942;0.008;2022-07-04T07:25:51;3.88;;;2.58;;
47279;SDS011;34064;44.942;0.008;2022-07-04T07:28:18;4.03;;;2.55;;
47279;SDS011;34064;44.942;0.008;2022-07-04T07:30:44;3.88;;;2.63;;
47279;SDS011;34064;44.942;0.008;2022-07-04T07:33:10;3.55;;;2.53;;
47279;SDS011;34064;44.942;0.008;2022-07-04T07:35:37;3.53;;;2.00;;
47279;SDS011;34064;44.942;0.008;2022-07-04T07:38:04;2.67;;;1.88;;
47279;SDS011;34064;44.942;0.008;2022-07-04T07:40:32;3.20;;;1.85;;
47279;SDS011;34064;44.942;0.008;2022-07-04T07:42:59;6.38;;;2.35;;
47279;SDS011;34064;44.942;0.008;2022-07-04T07:45:25;3.13;;;2.20;;
47279;SDS011;34064;44.942;0.008;2022-07-04T07:47:51;4.32;;;2.08;;
47279;SDS011;34064;44.942;0.008;2022-07-04T07:50:18;4.72;;;2.55;;
47279;SDS011;34064;44.942;0.008;2022-07-04T07:52:45;3.03;;;2.45;;
47279;SDS011;34064;44.942;0.008;2022-07-04T07:55:11;8.30;;;2.22;;
47279;SDS011;34064;44.942;0.008;2022-07-04T07:57:37;3.53;;;2.00;;
47279;SDS011;34064;44.942;0.008;2022-07-04T08:00:04;3.83;;;2.80;;
47279;SDS011;34064;44.942;0.008;2022-07-04T08:02:31;2.95;;;1.95;;
47279;SDS011;34064;44.942;0.008;2022-07-04T08:05:16;3.88;;;2.05;;
47279;SDS011;34064;44.942;0.008;2022-07-04T08:07:42;3.63;;;2.22;;
47279;SDS011;34064;44.942;0.008;2022-07-04T08:10:09;2.88;;;2.13;;
47279;SDS011;34064;44.942;0.008;2022-07-04T08:12:36;4.18;;;2.30;;
47279;SDS011;34064;44.942;0.008;2022-07-04T08:15:06;4.88;;;2.17;;
47279;SDS011;34064;44.942;0.008;2022-07-04T08:17:35;4.70;;;2.35;;
47279;SDS011;34064;44.942;0.008;2022-07-04T08:20:04;6.82;;;2.30;;
47279;SDS011;34064;44.942;0.008;2022-07-04T08:22:33;3.88;;;2.65;;
47279;SDS011;34064;44.942;0.008;2022-07-04T08:25:01;6.38;;;2.45;;
47279;SDS011;34064;44.942;0.008;2022-07-04T08:27:32;6.28;;;2.28;;
47279;SDS011;34064;44.942;0.008;2022-07-04T08:30:16;3.60;;;2.30;;
47279;SDS011;34064;44.942;0.008;2022-07-04T08:32:46;3.97;;;2.42;;
47279;SDS011;34064;44.942;0.008;2022-07-04T08:35:24;3.35;;;2.30;;
47279;SDS011;34064;44.942;0.008;2022-07-04T08:37:55;4.90;;;2.50;;
47279;SDS011;34064;44.942;0.008;2022-07-04T08:40:26;3.70;;;2.53;;
47279;SDS011;34064;44.942;0.008;2022-07-04T08:43:01;5.28;;;2.20;;
47279;SDS011;34064;44.942;0.008;2022-07-04T08:45:32;2.53;;;2.03;;
47279;SDS011;34064;44.942;0.008;2022-07-04T08:48:07;6.80;;;2.53;;
47279;SDS011;34064;44.942;0.008;2022-07-04T08:51:04;3.25;;;2.45;;
47279;SDS011;34064;44.942;0.008;2022-07-04T08:53:50;4.25;;;2.00;;
47279;SDS011;34064;44.942;0.008;2022-07-04T08:56:21;3.15;;;2.72;;
47279;SDS011;34064;44.942;0.008;2022-07-04T08:59:08;6.00;;;2.10;;
47279;SDS011;34064;44.942;0.008;2022-07-04T09:01:38;5.35;;;2.00;;
47279;SDS011;34064;44.942;0.008;2022-07-04T09:04:14;3.35;;;2.55;;
47279;SDS011;34064;44.942;0.008;2022-07-04T09:06:49;5.80;;;2.30;;
47279;SDS011;34064;44.942;0.008;2022-07-04T09:09:19;5.15;;;2.10;;
47279;SDS011;34064;44.942;0.008;2022-07-04T09:11:48;5.65;;;3.55;;
47279;SDS011;34064;44.942;0.008;2022-07-04T09:16:45;7.68;;;2.80;;
47279;SDS011;34064;44.942;0.008;2022-07-04T09:19:21;3.45;;;2.42;;
47279;SDS011;34064;44.942;0.008;2022-07-04T09:21:54;4.93;;;2.20;;
47279;SDS011;34064;44.942;0.008;2022-07-04T09:24:50;2.85;;;1.70;;
47279;SDS011;34064;44.942;0.008;2022-07-04T09:30:13;3.88;;;2.42;;
47279;SDS011;34064;44.942;0.008;2022-07-04T09:32:52;4.38;;;2.50;;
47279;SDS011;34064;44.942;0.008;2022-07-04T09:35:34;5.13;;;2.35;;
47279;SDS011;34064;44.942;0.008;2022-07-04T09:38:11;3.75;;;2.78;;
47279;SDS011;34064;44.942;0.008;2022-07-04T09:40:59;4.07;;;2.75;;
47279;SDS011;34064;44.942;0.008;2022-07-04T09:44:01;3.92;;;2.88;;
47279;SDS011;34064;44.942;0.008;2022-07-04T09:46:29;5.88;;;3.20;;
47279;SDS011;34064;44.942;0.008;2022-07-04T09:48:56;4.40;;;3.10;;
47279;SDS011;34064;44.942;0.008;2022-07-04T09:51:39;4.38;;;2.95;;
47279;SDS011;34064;44.942;0.008;2022-07-04T09:56:43;7.68;;;3.40;;
47279;SDS011;34064;44.942;0.008;2022-07-04T10:01:41;3.88;;;2.85;;
47279;SDS011;34064;44.942;0.008;2022-07-04T10:04:10;3.75;;;3.08;;
47279;SDS011;34064;44.942;0.008;2022-07-04T10:06:40;4.55;;;3.20;;
47279;SDS011;34064;44.942;0.008;2022-07-04T10:09:17;6.57;;;4.25;;
47279;SDS011;34064;44.942;0.008;2022-07-04T10:11:44;3.30;;;2.83;;
47279;SDS011;34064;44.942;0.008;2022-07-04T10:14:12;3.72;;;2.75;;
47279;SDS011;34064;44.942;0.008;2022-07-04T10:16:40;3.00;;;2.55;;
47279;SDS011;34064;44.942;0.008;2022-07-04T10:19:08;5.78;;;3.22;;
47279;SDS011;34064;44.942;0.008;2022-07-04T10:21:38;4.47;;;2.40;;
47279;SDS011;34064;44.942;0.008;2022-07-04T10:24:10;8.98;;;2.88;;
47279;SDS011;34064;44.942;0.008;2022-07-04T10:26:39;2.78;;;2.58;;
47279;SDS011;34064;44.942;0.008;2022-07-04T10:29:10;4.00;;;2.75;;
47279;SDS011;34064;44.942;0.008;2022-07-04T10:31:40;3.03;;;2.72;;
47279;SDS011;34064;44.942;0.008;2022-07-04T10:34:10;4.10;;;2.47;;
47279;SDS011;34064;44.942;0.008;2022-07-04T10:36:39;3.00;;;2.15;;
47279;SDS011;34064;44.942;0.008;2022-07-04T10:39:22;4.22;;;2.70;;
47279;SDS011;34064;44.942;0.008;2022-07-04T10:41:56;3.95;;;2.40;;
47279;SDS011;34064;44.942;0.008;2022-07-04T10:44:24;4.20;;;2.55;;
47279;SDS011;34064;44.942;0.008;2022-07-04T10:46:52;4.22;;;2.10;;
47279;SDS011;34064;44.942;0.008;2022-07-04T10:49:27;2.65;;;2.20;;
47279;SDS011;34064;44.942;0.008;2022-07-04T10:52:13;3.65;;;2.47;;
47279;SDS011;34064;44.942;0.008;2022-07-04T10:54:42;3.55;;;2.50;;
47279;SDS011;34064;44.942;0.008;2022-07-04T11:04:53;3.15;;;2.70;;
47279;SDS011;34064;44.942;0.008;2022-07-04T11:17:59;3.00;;;2.53;;
47279;SDS011;34064;44.942;0.008;2022-07-04T11:24:16;4.47;;;1.85;;
47279;SDS011;34064;44.942;0.008;2022-07-04T11:27:15;2.15;;;1.92;;
47279;SDS011;34064;44.942;0.008;2022-07-04T11:29:56;8.00;;;3.28;;
47279;SDS011;34064;44.942;0.008;2022-07-04T11:32:40;3.60;;;2.40;;
47279;SDS011;34064;44.942;0.008;2022-07-04T11:35:20;4.10;;;2.30;;
47279;SDS011;34064;44.942;0.008;2022-07-04T11:38:00;2.58;;;2.10;;
47279;SDS011;34064;44.942;0.008;2022-07-04T11:40:44;4.93;;;2.17;;
47279;SDS011;34064;44.942;0.008;2022-07-04T11:43:36;4.20;;;2.00;;
47279;SDS011;34064;44.942;0.008;2022-07-04T11:46:21;3.15;;;1.63;;
47279;SDS011;34064;44.942;0.008;2022-07-04T11:48:48;2.83;;;2.47;;
47279;SDS011;34064;44.942;0.008;2022-07-04T11:51:17;3.22;;;2.05;;
47279;SDS011;34064;44.942;0.008;2022-07-04T11:53:44;3.28;;;2.47;;
47279;SDS011;34064;44.942;0.008;2022-07-04T11:56:10;9.63;;;3.13;;
47279;SDS011;34064;44.942;0.008;2022-07-04T11:58:40;3.88;;;2.13;;
47279;SDS011;34064;44.942;0.008;2022-07-04T12:01:08;4.47;;;2.47;;
47279;SDS011;34064;44.942;0.008;2022-07-04T12:03:36;4.90;;;2.70;;
47279;SDS011;34064;44.942;0.008;2022-07-04T12:06:03;2.75;;;2.13;;
47279;SDS011;34064;44.942;0.008;2022-07-04T12:08:32;3.17;;;2.33;;
47279;SDS011;34064;44.942;0.008;2022-07-04T12:11:00;2.22;;;1.77;;
47279;SDS011;34064;44.942;0.008;2022-07-04T12:13:26;3.20;;;2.03;;
47279;SDS011;34064;44.942;0.008;2022-07-04T12:15:56;3.30;;;2.20;;
47279;SDS011;34064;44.942;0.008;2022-07-04T12:18:23;2.47;;;1.98;;
47279;SDS011;34064;44.942;0.008;2022-07-04T12:21:18;4.88;;;1.83;;
47279;SDS011;34064;44.942;0.008;2022-07-04T12:23:54;3.33;;;2.00;;
47279;SDS011;34064;44.942;0.008;2022-07-04T12:26:23;7.30;;;1.90;;
47279;SDS011;34064;44.942;0.008;2022-07-04T12:28:55;5.55;;;1.98;;
47279;SDS011;34064;44.942;0.008;2022-07-04T12:31:43;3.05;;;1.83;;
47279;SDS011;34064;44.942;0.008;2022-07-04T12:34:18;6.70;;;1.77;;
47279;SDS011;34064;44.942;0.008;2022-07-04T12:36:56;4.82;;;1.75;;
47279;SDS011;34064;44.942;0.008;2022-07-04T12:42:18;1.73;;;1.20;;
47279;SDS011;34064;44.942;0.008;2022-07-04T12:44:45;1.80;;;1.30;;
47279;SDS011;34064;44.942;0.008;2022-07-04T12:47:15;3.10;;;1.55;;
47279;SDS011;34064;44.942;0.008;2022-07-04T12:49:46;2.38;;;1.50;;
47279;SDS011;34064;44.942;0.008;2022-07-04T12:52:16;1.90;;;1.60;;
47279;SDS011;34064;44.942;0.008;2022-07-04T12:55:04;6.50;;;1.50;;
47279;SDS011;34064;44.942;0.008;2022-07-04T12:57:36;3.30;;;1.65;;
47279;SDS011;34064;44.942;0.008;2022-07-04T13:00:03;5.00;;;1.70;;
47279;SDS011;34064;44.942;0.008;2022-07-04T13:02:29;3.05;;;1.40;;
47279;SDS011;34064;44.942;0.008;2022-07-04T13:04:56;6.35;;;1.98;;
47279;SDS011;34064;44.942;0.008;2022-07-04T13:07:23;2.50;;;1.15;;
47279;SDS011;34064;44.942;0.008;2022-07-04T13:09:49;3.47;;;1.48;;
47279;SDS011;34064;44.942;0.008;2022-07-04T13:12:18;3.70;;;1.40;;
47279;SDS011;34064;44.942;0.008;2022-07-04T13:14:56;2.65;;;1.60;;
47279;SDS011;34064;44.942;0.008;2022-07-04T13:17:24;3.28;;;1.27;;
47279;SDS011;34064;44.942;0.008;2022-07-04T13:19:51;2.03;;;1.58;;
47279;SDS011;34064;44.942;0.008;2022-07-04T13:22:18;3.95;;;1.52;;
47279;SDS011;34064;44.942;0.008;2022-07-04T13:24:46;4.97;;;1.63;;
47279;SDS011;34064;44.942;0.008;2022-07-04T13:27:16;2.58;;;1.40;;
47279;SDS011;34064;44.942;0.008;2022-07-04T13:29:45;2.60;;;1.25;;
47279;SDS011;34064;44.942;0.008;2022-07-04T13:32:12;1.70;;;1.35;;
47279;SDS011;34064;44.942;0.008;2022-07-04T13:34:38;3.08;;;1.52;;
47279;SDS011;34064;44.942;0.008;2022-07-04T13:37:05;1.70;;;1.35;;
47279;SDS011;34064;44.942;0.008;2022-07-04T13:39:32;2.42;;;1.15;;
47279;SDS011;34064;44.942;0.008;2022-07-04T13:42:01;3.08;;;1.75;;
47279;SDS011;34064;44.942;0.008;2022-07-04T13:44:28;3.00;;;1.65;;
47279;SDS011;34064;44.942;0.008;2022-07-04T13:46:58;2.45;;;1.30;;
47279;SDS011;34064;44.942;0.008;2022-07-04T13:49:26;3.85;;;1.50;;
47279;SDS011;34064;44.942;0.008;2022-07-04T13:51:52;3.20;;;1.40;;
47279;SDS011;34064;44.942;0.008;2022-07-04T13:54:20;3.13;;;1.30;;
47279;SDS011;34064;44.942;0.008;2022-07-04T13:56:48;2.42;;;1.27;;
47279;SDS011;34064;44.942;0.008;2022-07-04T13:59:14;2.88;;;1.40;;
47279;SDS011;34064;44.942;0.008;2022-07-04T14:01:41;1.52;;;1.00;;
47279;SDS011;34064;44.942;0.008;2022-07-04T14:04:07;1.67;;;1.30;;
47279;SDS011;34064;44.942;0.008;2022-07-04T14:06:34;2.30;;;1.27;;
47279;SDS011;34064;44.942;0.008;2022-07-04T14:09:00;2.75;;;1.30;;
47279;SDS011;34064;44.942;0.008;2022-07-04T14:11:27;2.42;;;1.10;;
47279;SDS011;34064;44.942;0.008;2022-07-04T14:13:54;1.60;;;1.20;;
47279;SDS011;34064;44.942;0.008;2022-07-04T14:16:24;4.30;;;1.80;;
47279;SDS011;34064;44.942;0.008;2022-07-04T14:18:53;2.80;;;1.50;;
47279;SDS011;34064;44.942;0.008;2022-07-04T14:21:21;3.20;;;1.33;;
47279;SDS011;34064;44.942;0.008;2022-07-04T14:23:49;3.20;;;1.83;;
47279;SDS011;34064;44.942;0.008;2022-07-04T14:26:20;5.13;;;1.73;;
47279;SDS011;34064;44.942;0.008;2022-07-04T14:28:51;2.90;;;1.40;;
47279;SDS011;34064;44.942;0.008;2022-07-04T14:31:40;6.88;;;2.00;;
47279;SDS011;34064;44.942;0.008;2022-07-04T14:34:10;3.03;;;1.33;;
47279;SDS011;34064;44.942;0.008;2022-07-04T14:36:41;1.98;;;1.40;;
47279;SDS011;34064;44.942;0.008;2022-07-04T14:39:08;1.63;;;1.35;;
47279;SDS011;34064;44.942;0.008;2022-07-04T14:41:36;2.28;;;1.20;;
47279;SDS011;34064;44.942;0.008;2022-07-04T14:44:09;2.55;;;1.33;;
47279;SDS011;34064;44.942;0.008;2022-07-04T14:46:38;3.63;;;1.20;;
47279;SDS011;34064;44.942;0.008;2022-07-04T14:49:06;2.95;;;1.10;;
47279;SDS011;34064;44.942;0.008;2022-07-04T14:51:34;1.83;;;1.00;;
47279;SDS011;34064;44.942;0.008;2022-07-04T14:54:05;2.30;;;1.40;;
47279;SDS011;34064;44.942;0.008;2022-07-04T14:56:32;1.60;;;1.05;;
47279;SDS011;34064;44.942;0.008;2022-07-04T14:59:03;5.47;;;1.38;;
47279;SDS011;34064;44.942;0.008;2022-07-04T15:01:49;2.28;;;1.30;;
47279;SDS011;34064;44.942;0.008;2022-07-04T15:04:18;5.97;;;1.70;;
47279;SDS011;34064;44.942;0.008;2022-07-04T15:06:45;5.78;;;1.65;;
47279;SDS011;34064;44.942;0.008;2022-07-04T15:09:12;2.33;;;1.15;;
47279;SDS011;34064;44.942;0.008;2022-07-04T15:11:39;3.10;;;1.45;;
47279;SDS011;34064;44.942;0.008;2022-07-04T15:14:05;1.33;;;1.00;;
47279;SDS011;34064;44.942;0.008;2022-07-04T15:16:32;0.98;;;0.77;;
47279;SDS011;34064;44.942;0.008;2022-07-04T15:18:58;5.55;;;1.45;;
47279;SDS011;34064;44.942;0.008;2022-07-04T15:21:25;2.67;;;1.23;;
47279;SDS011;34064;44.942;0.008;2022-07-04T15:24:13;4.70;;;1.40;;
47279;SDS011;34064;44.942;0.008;2022-07-04T15:26:46;2.33;;;1.38;;
47279;SDS011;34064;44.942;0.008;2022-07-04T15:29:17;7.45;;;1.60;;
47279;SDS011;34064;44.942;0.008;2022-07-04T15:31:45;1.77;;;0.95;;
47279;SDS011;34064;44.942;0.008;2022-07-04T15:34:13;2.67;;;1.05;;
47279;SDS011;34064;44.942;0.008;2022-07-04T15:36:40;3.53;;;1.40;;
47279;SDS011;34064;44.942;0.008;2022-07-04T15:39:07;6.88;;;1.60;;
47279;SDS011;34064;44.942;0.008;2022-07-04T15:41:41;2.45;;;1.00;;
47279;SDS011;34064;44.942;0.008;2022-07-04T15:44:09;2.03;;;1.13;;